createdAt,value
2019-04-11T00:01:12.665Z,58.72
2019-04-11T00:03:43.868Z,58.80
2019-04-11T00:06:15.092Z,58.83
2019-04-11T00:08:46.424Z,58.86
2019-04-11T00:11:17.698Z,58.96
2019-04-11T00:13:49.515Z,59.39
2019-04-11T00:16:19.775Z,59.45
2019-04-11T00:18:51.312Z,59.32
2019-04-11T00:21:22.462Z,59.29
2019-04-11T00:23:52.720Z,59.58
2019-04-11T00:26:24.125Z,59.09
2019-04-11T00:28:56.946Z,59.34
2019-04-11T00:31:27.195Z,59.35
2019-04-11T00:33:58.396Z,59.34
2019-04-11T00:36:28.747Z,59.42
2019-04-11T00:38:59.366Z,59.36
2019-04-11T00:41:30.904Z,59.41
2019-04-11T00:44:02.899Z,59.13
2019-04-11T00:46:34.295Z,59.05
2019-04-11T00:49:04.470Z,59.31
2019-04-11T00:51:34.692Z,58.94
2019-04-11T00:54:05.031Z,59.49
2019-04-11T00:56:35.281Z,59.18
2019-04-11T00:59:05.868Z,58.96
2019-04-11T01:01:36.232Z,59.33
2019-04-11T01:04:07.511Z,59.19
2019-04-11T01:06:38.434Z,59.13
2019-04-11T01:09:10.068Z,59.66
2019-04-11T01:11:40.716Z,59.71
2019-04-11T01:14:10.893Z,59.63
2019-04-11T01:16:48.484Z,59.35
2019-04-11T01:19:18.847Z,59.20
2019-04-11T01:21:49.067Z,59.49
2019-04-11T01:24:19.746Z,59.51
2019-04-11T01:26:50.263Z,59.70
2019-04-11T01:29:20.474Z,59.80
2019-04-11T01:31:54.750Z,59.79
2019-04-11T01:34:25.026Z,59.73
2019-04-11T01:36:56.097Z,60.13
2019-04-11T01:39:39.115Z,60.88
2019-04-11T01:42:09.342Z,61.58
2019-04-11T01:44:40.750Z,62.40
2019-04-11T01:47:15.641Z,63.22
2019-04-11T01:49:46.216Z,63.71
2019-04-11T01:52:16.474Z,64.29
2019-04-11T01:54:46.710Z,64.78
2019-04-11T01:57:17.996Z,65.41
2019-04-11T01:59:48.307Z,65.43
2019-04-11T02:02:38.950Z,66.02
2019-04-11T02:05:25.179Z,66.42
2019-04-11T02:07:55.561Z,66.85
2019-04-11T02:10:26.568Z,66.75
2019-04-11T02:12:57.082Z,66.82
2019-04-11T02:15:28.284Z,67.10
2019-04-11T02:17:59.227Z,67.10
2019-04-11T02:20:29.480Z,67.25
2019-04-11T02:23:04.626Z,67.48
2019-04-11T02:25:47.066Z,67.21
2019-04-11T02:28:17.637Z,67.21
2019-04-11T02:30:52.063Z,67.26
2019-04-11T02:33:25.821Z,67.29
2019-04-11T02:35:56.698Z,67.23
2019-04-11T02:38:28.478Z,67.30
2019-04-11T02:40:58.894Z,67.06
2019-04-11T02:43:29.646Z,67.28
2019-04-11T02:46:12.998Z,67.10
2019-04-11T02:48:33.184Z,67.32
2019-04-11T02:51:06.953Z,67.21
2019-04-11T02:53:36.800Z,67.38
2019-04-11T02:56:09.335Z,67.39
2019-04-11T02:58:40.052Z,67.40
2019-04-11T03:01:12.784Z,67.50
2019-04-11T03:03:42.963Z,67.54
2019-04-11T03:06:13.361Z,67.91
2019-04-11T03:08:44.492Z,67.98
2019-04-11T03:11:16.579Z,68.25
2019-04-11T03:13:50.438Z,68.11
2019-04-11T03:16:32.881Z,68.17
2019-04-11T03:19:10.434Z,68.07
2019-04-11T03:21:26.838Z,68.03
2019-04-11T03:23:58.829Z,68.14
2019-04-11T03:26:30.942Z,68.09
2019-04-11T03:29:02.006Z,68.42
2019-04-11T03:32:14.394Z,68.40
2019-04-11T03:39:32.843Z,68.96
2019-04-11T03:41:59.369Z,68.95
2019-04-11T03:44:23.535Z,68.89
2019-04-11T03:47:06.413Z,69.09
2019-04-11T03:49:29.272Z,68.85
2019-04-11T03:51:52.976Z,69.17
2019-04-11T03:54:25.057Z,68.97
2019-04-11T03:56:57.061Z,68.97
2019-04-11T03:59:28.890Z,69.14
2019-04-11T04:02:00.095Z,69.13
2019-04-11T04:04:30.629Z,69.28
2019-04-11T04:07:02.526Z,69.14
2019-04-11T04:09:34.915Z,69.21
2019-04-11T04:12:07.180Z,69.46
2019-04-11T04:14:51.522Z,69.28
2019-04-11T04:17:41.377Z,68.84
2019-04-11T04:20:27.058Z,69.04
2019-04-11T04:23:29.524Z,69.23
2019-04-11T04:26:01.100Z,68.88
2019-04-11T04:28:33.683Z,69.00
2019-04-11T04:31:04.569Z,68.78
2019-04-11T04:33:36.298Z,68.55
2019-04-11T04:36:10.420Z,68.59
2019-04-11T04:38:41.427Z,68.47
2019-04-11T04:41:28.291Z,68.40
2019-04-11T04:43:48.386Z,67.92
2019-04-11T04:46:34.791Z,66.61
2019-04-11T04:49:04.646Z,66.23
2019-04-11T04:51:35.249Z,65.17
2019-04-11T04:54:05.954Z,63.54
2019-04-11T04:56:37.432Z,62.69
2019-04-11T04:59:10.106Z,61.14
2019-04-11T05:01:44.297Z,60.46
2019-04-11T05:04:15.876Z,59.11
2019-04-11T05:06:49.949Z,58.07
2019-04-11T05:09:21.346Z,57.20
2019-04-11T05:11:53.097Z,56.69
2019-04-11T05:14:25.254Z,55.76
2019-04-11T05:16:55.672Z,54.36
2019-04-11T05:19:28.400Z,54.13
2019-04-11T05:21:58.248Z,53.64
2019-04-11T05:24:28.482Z,50.52
2019-04-11T05:26:59.689Z,49.92
2019-04-11T05:29:30.214Z,47.99
2019-04-11T05:32:00.576Z,49.30
2019-04-11T05:34:30.986Z,48.04
2019-04-11T05:37:01.919Z,44.83
2019-04-11T05:39:33.790Z,46.36
2019-04-11T05:42:05.044Z,47.62
2019-04-11T05:44:38.232Z,45.07
2019-04-11T05:47:07.355Z,44.01
2019-04-11T05:50:01.090Z,46.25
2019-04-11T05:52:34.184Z,45.74
2019-04-11T05:55:09.561Z,45.53
2019-04-11T05:57:44.892Z,47.94
2019-04-11T06:00:23.660Z,46.01
2019-04-11T06:03:01.632Z,44.72
2019-04-11T06:05:59.902Z,41.28
2019-04-11T06:08:30.005Z,41.75
2019-04-11T06:11:09.478Z,47.63
2019-04-11T06:14:05.805Z,44.88
2019-04-11T06:16:44.881Z,44.45
2019-04-11T06:19:30.506Z,48.22
2019-04-11T06:22:04.582Z,44.49
2019-04-11T06:24:53.911Z,43.94
2019-04-11T06:27:30.471Z,44.38
2019-04-11T06:30:32.694Z,45.83
2019-04-11T06:33:22.698Z,45.38
2019-04-11T06:36:11.938Z,43.62
2019-04-11T06:38:56.745Z,44.14
2019-04-11T06:42:01.281Z,42.95
2019-04-11T06:44:39.772Z,44.04
2019-04-11T06:47:35.270Z,44.40
2019-04-11T06:50:27.015Z,43.78
2019-04-11T06:53:00.222Z,45.39
2019-04-11T06:55:49.185Z,43.54
2019-04-11T06:58:25.517Z,43.94
2019-04-11T07:01:01.364Z,43.87
2019-04-11T07:03:40.577Z,43.09
2019-04-11T07:06:19.621Z,44.13
2019-04-11T07:08:57.251Z,43.59
2019-04-11T07:11:36.315Z,43.53
2019-04-11T07:14:15.644Z,43.56
2019-04-11T07:17:07.434Z,43.03
2019-04-11T07:19:53.728Z,43.27
2019-04-11T07:22:43.116Z,44.31
2019-04-11T07:25:47.773Z,44.33
2019-04-11T07:28:33.728Z,42.52
2019-04-11T07:31:21.841Z,43.32
2019-04-11T07:34:22.301Z,41.52
2019-04-11T07:37:23.815Z,42.23
2019-04-11T07:40:13.180Z,42.10
2019-04-11T07:43:08.445Z,43.08
2019-04-11T07:45:41.809Z,41.33
2019-04-11T07:48:22.034Z,41.48
2019-04-11T07:50:55.233Z,39.97
2019-04-11T07:53:26.275Z,40.71
2019-04-11T07:56:00.929Z,40.89
2019-04-11T07:58:42.184Z,42.48
2019-04-11T08:01:29.442Z,41.19
2019-04-11T08:04:21.699Z,43.37
2019-04-11T08:07:15.493Z,40.46
2019-04-11T08:09:50.710Z,41.37
2019-04-11T08:12:23.982Z,39.16
2019-04-11T08:15:19.873Z,39.13
2019-04-11T08:17:50.546Z,39.12
2019-04-11T08:20:58.472Z,39.02
2019-04-11T08:23:29.800Z,38.88
2019-04-11T08:26:38.012Z,38.12
2019-04-11T08:29:12.303Z,37.64
2019-04-11T08:31:58.198Z,37.87
2019-04-11T08:34:35.413Z,37.68
2019-04-11T08:37:27.742Z,36.85
2019-04-11T08:39:59.585Z,38.05
2019-04-11T08:42:46.913Z,37.04
2019-04-11T08:45:17.936Z,38.31
2019-04-11T08:47:54.341Z,37.56
2019-04-11T08:50:28.380Z,37.93
2019-04-11T08:53:18.615Z,37.17
2019-04-11T08:55:56.233Z,37.67
2019-04-11T08:58:47.384Z,37.06
2019-04-11T09:01:20.117Z,36.36
2019-04-11T09:04:11.847Z,36.93
2019-04-11T09:06:42.916Z,36.56
2019-04-11T09:09:38.014Z,37.22
2019-04-11T09:12:12.731Z,37.28
2019-04-11T09:14:54.969Z,37.67
2019-04-11T09:17:28.408Z,37.15
2019-04-11T09:20:21.431Z,38.35
2019-04-11T09:22:57.503Z,36.33
2019-04-11T09:25:59.426Z,38.77
2019-04-11T09:28:41.853Z,38.61
2019-04-11T09:31:31.824Z,37.28
2019-04-11T09:34:21.787Z,37.90
2019-04-11T09:37:13.915Z,38.35
2019-04-11T09:40:05.784Z,39.19
2019-04-11T09:42:48.745Z,39.92
2019-04-11T09:45:37.746Z,40.67
2019-04-11T09:48:34.913Z,41.55
2019-04-11T09:51:29.583Z,41.95
2019-04-11T09:54:32.263Z,41.66
2019-04-11T09:57:16.409Z,40.78
2019-04-11T10:00:14.659Z,40.43
2019-04-11T10:02:56.418Z,39.91
2019-04-11T10:05:40.722Z,39.99
2019-04-11T10:08:18.949Z,40.45
2019-04-11T10:11:10.112Z,40.48
2019-04-11T10:13:59.647Z,40.53
2019-04-11T10:16:48.685Z,40.77
2019-04-11T10:19:32.632Z,40.35
2019-04-11T10:22:24.794Z,40.19
2019-04-11T10:25:12.832Z,40.26
2019-04-11T10:28:07.580Z,41.42
2019-04-11T10:30:58.424Z,41.25
2019-04-11T10:33:50.506Z,41.29
2019-04-11T10:36:25.798Z,40.93
2019-04-11T10:39:13.224Z,40.08
2019-04-11T10:41:46.128Z,41.46
2019-04-11T10:44:23.530Z,42.03
2019-04-11T10:46:57.809Z,43.72
2019-04-11T10:50:00.893Z,44.46
2019-04-11T10:52:36.208Z,43.99
2019-04-11T10:55:17.721Z,44.44
2019-04-11T10:57:54.101Z,44.65
2019-04-11T11:00:29.428Z,44.36
2019-04-11T11:03:20.249Z,44.37
2019-04-11T11:05:53.440Z,44.90
2019-04-11T11:08:45.842Z,43.58
2019-04-11T11:11:24.062Z,43.64
2019-04-11T11:14:12.356Z,43.73
2019-04-11T11:16:52.728Z,44.94
2019-04-11T11:20:04.080Z,45.23
2019-04-11T11:22:43.422Z,45.93
2019-04-11T11:25:50.040Z,46.42
2019-04-11T11:28:21.551Z,45.48
2019-04-11T11:31:20.331Z,45.08
2019-04-11T11:33:51.481Z,45.07
2019-04-11T11:36:50.497Z,45.75
2019-04-11T11:39:46.962Z,45.20
2019-04-11T11:42:54.827Z,44.42
2019-04-11T11:45:46.906Z,44.23
2019-04-11T11:48:49.981Z,44.52
2019-04-11T11:51:45.762Z,44.85
2019-04-11T11:54:39.799Z,45.36
2019-04-11T11:57:14.985Z,44.43
2019-04-11T11:59:56.583Z,43.48
2019-04-11T12:02:40.137Z,44.01
2019-04-11T12:05:26.144Z,43.34
2019-04-11T12:08:34.994Z,42.71
2019-04-11T12:11:10.872Z,42.19
2019-04-11T12:14:00.020Z,41.87
2019-04-11T12:16:48.592Z,43.71
2019-04-11T12:19:49.307Z,44.63
2019-04-11T12:22:14.139Z,45.30
2019-04-11T12:24:48.288Z,46.21
2019-04-11T12:27:56.330Z,46.31
2019-04-11T12:30:42.084Z,46.56
2019-04-11T12:33:29.903Z,47.45
2019-04-11T12:36:10.728Z,46.94
2019-04-11T12:38:58.101Z,46.14
2019-04-11T12:41:35.973Z,45.40
2019-04-11T12:44:29.120Z,45.20
2019-04-11T12:47:18.696Z,45.71
2019-04-11T12:50:22.987Z,46.56
2019-04-11T12:53:04.421Z,46.08
2019-04-11T12:55:52.894Z,46.20
2019-04-11T12:58:36.243Z,46.24
2019-04-11T13:01:43.690Z,46.12
2019-04-11T13:04:38.614Z,45.81
2019-04-11T13:07:30.983Z,45.52
2019-04-11T13:10:09.807Z,45.17
2019-04-11T13:13:04.651Z,44.71
2019-04-11T13:15:41.107Z,44.63
2019-04-11T13:18:24.609Z,44.61
2019-04-11T13:21:16.666Z,44.13
2019-04-11T13:24:06.096Z,43.46
2019-04-11T13:27:01.522Z,43.64
2019-04-11T13:30:03.173Z,42.83
2019-04-11T13:32:50.248Z,42.49
2019-04-11T13:35:38.534Z,43.26
2019-04-11T13:38:11.512Z,42.98
2019-04-11T13:41:03.569Z,43.50
2019-04-11T13:43:40.600Z,43.54
2019-04-11T13:46:48.356Z,42.56
2019-04-11T13:49:43.709Z,42.80
2019-04-11T13:52:33.016Z,41.83
2019-04-11T13:55:18.240Z,42.45
2019-04-11T13:58:07.624Z,42.18
2019-04-11T14:00:42.571Z,42.16
2019-04-11T14:03:48.044Z,42.69
2019-04-11T14:06:45.724Z,42.63
2019-04-11T14:09:32.884Z,43.27
2019-04-11T14:12:06.924Z,44.11
2019-04-11T14:14:45.961Z,44.42
2019-04-11T14:17:33.993Z,44.68
2019-04-11T14:20:33.026Z,44.67
2019-04-11T14:23:28.305Z,44.54
2019-04-11T14:26:16.241Z,44.45
2019-04-11T14:28:53.218Z,44.89
2019-04-11T14:31:41.940Z,44.26
2019-04-11T14:34:33.829Z,43.33
2019-04-11T14:37:38.054Z,43.06
2019-04-11T14:40:10.908Z,43.21
2019-04-11T14:43:00.611Z,44.01
2019-04-11T14:45:55.515Z,43.78
2019-04-11T14:48:37.826Z,43.59
2019-04-11T14:51:18.213Z,44.08
2019-04-11T14:53:58.385Z,44.03
2019-04-11T14:56:29.385Z,44.80
2019-04-11T14:59:23.893Z,45.34
2019-04-11T15:01:57.601Z,45.42
2019-04-11T15:04:45.889Z,45.21
2019-04-11T15:07:17.203Z,44.88
2019-04-11T15:10:01.986Z,45.15
2019-04-11T15:12:34.025Z,44.79
2019-04-11T15:15:23.668Z,44.36
2019-04-11T15:17:59.413Z,44.57
2019-04-11T15:20:54.931Z,44.59
2019-04-11T15:23:32.027Z,44.35
2019-04-11T15:26:19.476Z,44.23
2019-04-11T15:29:13.798Z,43.81
2019-04-11T15:32:13.033Z,44.76
2019-04-11T15:34:46.731Z,44.80
2019-04-11T15:37:38.688Z,44.66
2019-04-11T15:40:13.779Z,44.68
2019-04-11T15:43:01.606Z,44.25
2019-04-11T15:45:35.541Z,44.58
2019-04-11T15:48:33.844Z,44.65
2019-04-11T15:51:25.586Z,45.06
2019-04-11T15:54:26.568Z,44.74
2019-04-11T15:57:12.222Z,44.52
2019-04-11T16:00:00.602Z,44.63
2019-04-11T16:02:53.065Z,43.99
2019-04-11T16:05:49.786Z,44.39
2019-04-11T16:08:32.060Z,44.34
2019-04-11T16:11:24.427Z,43.83
2019-04-11T16:14:12.598Z,43.51
2019-04-11T16:17:01.901Z,42.95
2019-04-11T16:20:04.433Z,43.72
2019-04-11T16:22:54.999Z,43.87
2019-04-11T16:25:28.893Z,44.86
2019-04-11T16:28:13.292Z,45.09
2019-04-11T16:30:53.476Z,45.35
2019-04-11T16:33:46.194Z,45.74
2019-04-11T16:36:22.057Z,45.96
2019-04-11T16:39:14.263Z,46.24
2019-04-11T16:41:55.855Z,46.31
2019-04-11T16:44:46.160Z,46.39
2019-04-11T16:47:28.448Z,45.96
2019-04-11T16:49:58.710Z,45.89
2019-04-11T16:52:28.921Z,45.79
2019-04-11T16:55:00.189Z,45.48
2019-04-11T16:57:32.613Z,45.72
2019-04-11T17:00:03.424Z,45.80
2019-04-11T17:02:35.301Z,45.81
2019-04-11T17:05:07.450Z,46.18
2019-04-11T17:07:51.322Z,46.51
2019-04-11T17:10:40.585Z,46.22
2019-04-11T17:13:10.797Z,46.29
2019-04-11T17:15:42.130Z,46.67
2019-04-11T17:18:12.332Z,46.77
2019-04-11T17:20:42.875Z,46.52
2019-04-11T17:23:13.101Z,46.46
2019-04-11T17:25:43.287Z,46.46
2019-04-11T17:28:13.510Z,46.65
2019-04-11T17:30:43.783Z,46.67
2019-04-11T17:33:14.087Z,46.40
2019-04-11T17:35:44.672Z,45.99
2019-04-11T17:38:15.029Z,45.93
2019-04-11T17:40:45.392Z,45.84
2019-04-11T17:43:16.460Z,46.18
2019-04-11T17:45:49.021Z,46.33
2019-04-11T17:48:19.430Z,45.80
2019-04-11T17:50:49.806Z,46.13
2019-04-11T17:53:20.114Z,46.68
2019-04-11T17:55:51.984Z,45.89
2019-04-11T17:58:26.834Z,45.66
2019-04-11T18:01:00.419Z,45.90
2019-04-11T18:03:30.340Z,46.15
2019-04-11T18:06:00.505Z,46.52
2019-04-11T18:08:30.840Z,46.49
2019-04-11T18:11:01.116Z,46.89
2019-04-11T18:13:31.771Z,46.64
2019-04-11T18:16:02.182Z,47.24
2019-04-11T18:18:34.870Z,47.50
2019-04-11T18:21:07.037Z,47.44
2019-04-11T18:23:36.464Z,47.50
2019-04-11T18:26:07.234Z,47.75
2019-04-11T18:28:37.495Z,47.12
2019-04-11T18:31:07.692Z,47.57
2019-04-11T18:33:37.933Z,47.38
2019-04-11T18:36:08.230Z,46.66
2019-04-11T18:38:39.592Z,47.08
2019-04-11T18:41:09.812Z,47.37
2019-04-11T18:43:40.011Z,47.44
2019-04-11T18:46:10.778Z,47.32
2019-04-11T18:48:41.030Z,47.27
2019-04-11T18:51:11.862Z,47.30
2019-04-11T18:53:42.097Z,47.57
2019-04-11T18:56:12.350Z,47.89
2019-04-11T18:58:44.878Z,48.12
2019-04-11T19:01:18.012Z,48.11
2019-04-11T19:03:49.551Z,47.81
2019-04-11T19:06:27.717Z,48.02
2019-04-11T19:08:51.801Z,48.10
2019-04-11T19:11:22.250Z,48.44
2019-04-11T19:13:52.514Z,48.75
2019-04-11T19:16:22.683Z,48.51
2019-04-11T19:18:52.941Z,48.76
2019-04-11T19:21:23.131Z,48.62
2019-04-11T19:23:53.345Z,48.58
2019-04-11T19:26:26.060Z,48.17
2019-04-11T19:29:06.008Z,48.54
2019-04-11T19:31:37.071Z,48.79
2019-04-11T19:34:08.819Z,49.12
2019-04-11T19:36:42.109Z,48.73
2019-04-11T19:39:13.920Z,48.63
2019-04-11T19:41:47.810Z,48.71
2019-04-11T19:44:16.874Z,48.56
2019-04-11T19:46:50.968Z,49.06
2019-04-11T19:49:30.327Z,48.78
2019-04-11T19:52:01.737Z,48.49
2019-04-11T19:54:32.957Z,48.31
2019-04-11T19:57:05.453Z,48.32
2019-04-11T19:59:35.898Z,47.90
2019-04-11T20:02:06.132Z,47.81
2019-04-11T20:04:36.644Z,46.84
2019-04-11T20:07:06.858Z,47.12
2019-04-11T20:09:37.224Z,47.00
2019-04-11T20:12:07.469Z,47.09
2019-04-11T20:14:37.692Z,47.25
2019-04-11T20:17:09.254Z,47.39
2019-04-11T20:19:39.674Z,47.41
2019-04-11T20:22:09.975Z,47.93
2019-04-11T20:24:40.336Z,47.59
2019-04-11T20:27:10.519Z,48.10
2019-04-11T20:29:40.703Z,48.42
2019-04-11T20:32:10.929Z,48.34
2019-04-11T20:34:41.331Z,48.67
2019-04-11T20:37:13.153Z,48.64
2019-04-11T20:39:46.405Z,48.90
2019-04-11T20:42:17.210Z,48.94
2019-04-11T20:44:47.328Z,49.06
2019-04-11T20:47:17.593Z,48.82
2019-04-11T20:49:50.830Z,48.79
2019-04-11T20:52:21.051Z,49.04
2019-04-11T20:54:51.244Z,48.89
2019-04-11T20:57:25.782Z,48.67
2019-04-11T20:59:53.673Z,48.99
2019-04-11T21:02:28.172Z,49.20
2019-04-11T21:04:56.131Z,49.14
2019-04-11T21:07:26.536Z,49.14
2019-04-11T21:09:56.775Z,49.47
2019-04-11T21:12:27.043Z,49.17
2019-04-11T21:14:57.416Z,49.39
2019-04-11T21:17:27.571Z,49.04
2019-04-11T21:19:57.755Z,49.01
2019-04-11T21:22:27.991Z,49.34
2019-04-11T21:24:59.518Z,48.91
2019-04-11T21:27:31.164Z,48.64
2019-04-11T21:30:01.350Z,49.03
2019-04-11T21:32:32.698Z,49.00
2019-04-11T21:35:03.066Z,49.00
2019-04-11T21:37:33.374Z,49.29
2019-04-11T21:40:03.707Z,49.03
2019-04-11T21:42:36.074Z,49.14
2019-04-11T21:45:06.889Z,49.11
2019-04-11T21:47:38.087Z,48.90
2019-04-11T21:50:09.661Z,49.16
2019-04-11T21:52:43.420Z,49.29
2019-04-11T21:55:15.194Z,48.92
2019-04-11T21:57:48.340Z,49.14
2019-04-11T22:00:23.197Z,49.24
2019-04-11T22:02:55.269Z,49.15
2019-04-11T22:05:29.023Z,49.61
2019-04-11T22:08:00.843Z,49.59
2019-04-11T22:10:30.711Z,49.62
2019-04-11T22:13:01.067Z,49.52
2019-04-11T22:15:31.309Z,49.48
2019-04-11T22:18:01.567Z,49.54
2019-04-11T22:20:31.744Z,49.26
2019-04-11T22:23:01.911Z,49.67
2019-04-11T22:25:32.140Z,49.81
2019-04-11T22:28:02.377Z,50.24
2019-04-11T22:30:32.571Z,50.65
2019-04-11T22:33:16.926Z,50.81
2019-04-11T22:35:48.075Z,51.06
2019-04-11T22:38:18.259Z,51.30
2019-04-11T22:40:48.504Z,51.52
2019-04-11T22:43:24.304Z,51.66
2019-04-11T22:45:50.611Z,51.59
2019-04-11T22:48:22.087Z,51.53
2019-04-11T22:50:52.277Z,51.81
2019-04-11T22:53:22.478Z,52.01
2019-04-11T22:55:52.658Z,52.67
2019-04-11T22:58:22.898Z,52.78
2019-04-11T23:00:53.085Z,53.22
2019-04-11T23:03:41.405Z,53.25
2019-04-11T23:06:11.705Z,53.28
2019-04-11T23:08:41.897Z,53.78
2019-04-11T23:11:12.123Z,53.97
2019-04-11T23:13:45.393Z,53.89
2019-04-11T23:16:14.383Z,54.10
2019-04-11T23:18:45.127Z,54.15
2019-04-11T23:21:15.727Z,53.89
2019-04-11T23:23:45.956Z,54.15
2019-04-11T23:26:16.185Z,54.42
2019-04-11T23:28:46.958Z,54.56
2019-04-11T23:31:20.321Z,54.86
2019-04-11T23:33:52.025Z,54.96
2019-04-11T23:36:22.220Z,55.21
2019-04-11T23:38:53.790Z,55.30
2019-04-11T23:41:24.082Z,55.42
2019-04-11T23:43:54.496Z,55.58
2019-04-11T23:46:24.677Z,55.83
2019-04-11T23:48:55.668Z,55.70
2019-04-11T23:51:26.543Z,55.42
2019-04-11T23:53:59.735Z,55.70
2019-04-11T23:56:30.728Z,55.89
2019-04-11T23:59:02.099Z,55.81
